Moody AFB, Georgia
Current Conditions -  °F | °C
As of 12:12 PM on Sunday 21 Dec 2014 (Local Time) from KVAD Reporting Station
Overcast Overcast  
Wind Chill: 54°   Ceiling: 300
Heat Index: 54°   Visibility: 10mi
Dew Point: 52°   Wind: 7mph
Humidity: 94%   Direction: 60°ENE
Pressure: 30.11"   Gusts: NA
Location:  30.9753°N, 83.2042°W
Report Text: KVAD 211712Z AUTO 06006KT 10SM OVC003 12/11 A3011 RMK AO2
Loading
Personal Weather Stations






























Interactive Weather Map New forecast layout! Learn more

10-Day Weather Forecast

Advertisements
Track Severe Weather on mobile